createdAt,value
2019-04-30T00:02:15.957Z,24.05
2019-04-30T00:04:48.642Z,23.77
2019-04-30T00:07:19.689Z,21.85
2019-04-30T00:09:53.880Z,23.73
2019-04-30T00:12:21.536Z,24.95
2019-04-30T00:14:51.641Z,23.45
2019-04-30T00:17:23.237Z,23.53
2019-04-30T00:19:58.215Z,23.83
2019-04-30T00:22:33.368Z,22.90
2019-04-30T00:24:56.685Z,22.35
2019-04-30T00:27:30.200Z,23.38
2019-04-30T00:30:00.346Z,23.10
2019-04-30T00:32:30.261Z,22.40
2019-04-30T00:35:00.315Z,22.63
2019-04-30T00:37:30.418Z,22.60
2019-04-30T00:40:01.596Z,21.55
2019-04-30T00:42:31.646Z,21.68
2019-04-30T00:45:06.653Z,21.42
2019-04-30T00:47:35.074Z,22.42
2019-04-30T00:50:05.789Z,22.80
2019-04-30T00:52:37.378Z,22.95
2019-04-30T00:55:09.201Z,23.18
2019-04-30T00:57:43.750Z,23.60
2019-04-30T01:00:12.432Z,22.63
2019-04-30T01:03:10.324Z,22.95
2019-04-30T01:05:44.485Z,23.87
2019-04-30T01:08:12.134Z,24.72
2019-04-30T01:10:42.158Z,24.70
2019-04-30T01:13:12.185Z,24.43
2019-04-30T01:15:43.959Z,23.92
2019-04-30T01:18:13.908Z,23.18
2019-04-30T01:20:43.913Z,23.83
2019-04-30T01:23:15.548Z,23.52
2019-04-30T01:25:49.922Z,23.70
2019-04-30T01:28:23.191Z,22.32
2019-04-30T01:30:49.546Z,23.25
2019-04-30T01:33:19.725Z,21.30
2019-04-30T01:35:49.713Z,23.25
2019-04-30T01:38:19.704Z,23.25
2019-04-30T01:40:51.149Z,21.30
2019-04-30T01:43:30.584Z,21.62
2019-04-30T01:45:52.958Z,21.37
2019-04-30T01:48:23.021Z,22.82
2019-04-30T01:50:53.074Z,22.93
2019-04-30T01:53:23.120Z,24.25
2019-04-30T01:56:19.318Z,23.30
2019-04-30T01:58:55.976Z,22.48
2019-04-30T02:01:28.630Z,24.10
2019-04-30T02:03:59.190Z,23.67
2019-04-30T02:06:29.474Z,24.10
2019-04-30T02:08:59.670Z,23.50
2019-04-30T02:11:29.662Z,23.77
2019-04-30T02:13:59.733Z,24.63
2019-04-30T02:16:29.708Z,24.07
2019-04-30T02:18:59.794Z,24.07
2019-04-30T02:21:30.384Z,24.35
2019-04-30T02:24:01.522Z,23.57
2019-04-30T02:26:31.509Z,24.25
2019-04-30T02:29:01.522Z,23.98
2019-04-30T02:31:31.622Z,23.53
2019-04-30T02:34:14.386Z,23.23
2019-04-30T02:36:53.310Z,24.43
2019-04-30T02:39:24.293Z,23.92
2019-04-30T02:41:54.285Z,23.95
2019-04-30T02:44:24.329Z,23.52
2019-04-30T02:46:54.687Z,23.90
2019-04-30T02:49:24.771Z,24.03
2019-04-30T02:51:55.146Z,23.60
2019-04-30T02:54:29.659Z,23.62
2019-04-30T02:57:13.176Z,24.57
2019-04-30T03:00:01.245Z,24.27
2019-04-30T03:02:32.594Z,24.70
2019-04-30T03:05:02.679Z,24.20
2019-04-30T03:07:32.746Z,23.83
2019-04-30T03:10:02.829Z,23.75
2019-04-30T03:12:33.779Z,24.60
2019-04-30T03:15:04.419Z,23.57
2019-04-30T03:17:52.497Z,24.67
2019-04-30T03:20:41.445Z,25.08
2019-04-30T03:23:11.439Z,23.60
2019-04-30T03:25:41.455Z,22.27
2019-04-30T03:28:11.510Z,23.73
2019-04-30T03:30:42.822Z,23.18
2019-04-30T03:33:13.448Z,22.93
2019-04-30T03:35:47.623Z,22.52
2019-04-30T03:38:15.422Z,23.10
2019-04-30T03:40:45.421Z,22.93
2019-04-30T03:43:15.500Z,21.93
2019-04-30T03:45:45.497Z,22.62
2019-04-30T03:48:15.576Z,22.52
2019-04-30T03:50:53.781Z,22.50
2019-04-30T03:53:20.227Z,22.60
2019-04-30T03:55:50.715Z,22.43
2019-04-30T03:58:21.575Z,21.02
2019-04-30T04:01:03.572Z,22.75
2019-04-30T04:03:36.279Z,22.48
2019-04-30T04:06:29.249Z,22.17
2019-04-30T04:09:14.735Z,21.37
2019-04-30T04:11:46.079Z,21.82
2019-04-30T04:14:16.110Z,21.80
2019-04-30T04:16:46.116Z,20.48
2019-04-30T04:19:16.098Z,21.07
2019-04-30T04:21:46.190Z,21.13
2019-04-30T04:24:16.163Z,19.47
2019-04-30T04:26:46.185Z,20.85
2019-04-30T04:29:16.258Z,20.27
2019-04-30T04:31:46.257Z,19.77
2019-04-30T04:34:16.230Z,19.60
2019-04-30T04:36:46.288Z,18.90
2019-04-30T04:39:16.423Z,19.30
2019-04-30T04:41:46.500Z,19.70
2019-04-30T04:44:16.480Z,19.15
2019-04-30T04:46:46.474Z,19.55
2019-04-30T04:49:16.524Z,19.92
2019-04-30T04:51:49.180Z,18.87
2019-04-30T04:54:20.242Z,18.90
2019-04-30T04:56:53.357Z,19.02
2019-04-30T04:59:21.781Z,18.45
2019-04-30T05:01:51.850Z,17.55
2019-04-30T05:04:21.902Z,18.85
2019-04-30T05:06:51.989Z,18.85
2019-04-30T05:09:22.065Z,18.95
2019-04-30T05:11:52.080Z,18.92
2019-04-30T05:14:22.075Z,18.17
2019-04-30T05:16:52.077Z,18.67
2019-04-30T05:19:22.065Z,19.37
2019-04-30T05:21:52.077Z,18.15
2019-04-30T05:24:22.109Z,18.05
2019-04-30T05:26:52.636Z,17.32
2019-04-30T05:29:22.613Z,16.95
2019-04-30T05:31:52.617Z,16.73
2019-04-30T05:34:22.603Z,17.13
2019-04-30T05:36:52.605Z,16.63
2019-04-30T05:39:22.610Z,16.97
2019-04-30T05:41:52.664Z,16.85
2019-04-30T05:44:22.644Z,17.27
2019-04-30T05:46:52.646Z,17.30
2019-04-30T05:49:22.673Z,16.55
2019-04-30T05:51:55.714Z,16.30
2019-04-30T05:54:24.453Z,16.93
2019-04-30T05:56:54.535Z,17.10
2019-04-30T05:59:24.524Z,17.87
2019-04-30T06:01:54.687Z,17.75
2019-04-30T06:04:24.697Z,16.48
2019-04-30T06:06:54.715Z,17.07
2019-04-30T06:09:40.872Z,16.30
2019-04-30T06:12:32.868Z,16.82
2019-04-30T06:15:11.887Z,15.78
2019-04-30T06:17:42.549Z,16.17
2019-04-30T06:20:18.366Z,16.77
2019-04-30T06:22:44.381Z,15.98
2019-04-30T06:25:14.366Z,16.00
2019-04-30T06:27:44.380Z,15.85
2019-04-30T06:30:14.361Z,16.23
2019-04-30T06:32:44.352Z,16.50
2019-04-30T06:35:14.332Z,15.50
2019-04-30T06:37:44.334Z,15.72
2019-04-30T06:40:15.873Z,16.52
2019-04-30T06:42:45.874Z,16.48
2019-04-30T06:45:16.197Z,17.00
2019-04-30T06:47:46.208Z,16.17
2019-04-30T06:50:16.218Z,17.15
2019-04-30T06:52:56.238Z,18.80
2019-04-30T06:55:19.299Z,17.37
2019-04-30T06:57:49.794Z,17.92
2019-04-30T07:00:32.758Z,17.40
2019-04-30T07:02:54.605Z,17.82
2019-04-30T07:05:24.585Z,18.17
2019-04-30T07:08:12.257Z,17.65
2019-04-30T07:10:53.177Z,18.37
2019-04-30T07:13:18.666Z,17.73
2019-04-30T07:15:48.988Z,17.25
2019-04-30T07:18:20.132Z,17.05
2019-04-30T07:20:51.173Z,17.02
2019-04-30T07:23:21.192Z,18.33
2019-04-30T07:25:51.785Z,17.85
2019-04-30T07:28:21.983Z,16.48
2019-04-30T07:31:07.535Z,16.75
2019-04-30T07:33:23.721Z,16.73
2019-04-30T07:35:54.792Z,15.10
2019-04-30T07:38:24.765Z,15.00
2019-04-30T07:40:54.751Z,14.05
2019-04-30T07:43:24.717Z,14.83
2019-04-30T07:45:54.724Z,14.40
2019-04-30T07:48:26.590Z,14.33
2019-04-30T07:53:25.328Z,11.75
2019-04-30T08:16:11.092Z,9.38
2019-04-30T08:18:41.154Z,9.70
2019-04-30T08:21:11.201Z,9.87
2019-04-30T08:23:41.301Z,8.57
2019-04-30T08:26:11.314Z,8.65
2019-04-30T08:28:41.470Z,9.05
2019-04-30T08:31:11.472Z,7.92
2019-04-30T08:33:41.705Z,8.13
2019-04-30T08:36:11.717Z,8.88
2019-04-30T08:38:42.147Z,9.50
2019-04-30T08:41:12.161Z,8.48
2019-04-30T08:43:42.214Z,9.50
2019-04-30T08:46:12.273Z,8.60
2019-04-30T08:48:50.427Z,8.63
2019-04-30T08:51:14.439Z,7.92
2019-04-30T08:53:45.156Z,7.90
2019-04-30T08:56:16.716Z,8.75
2019-04-30T08:58:48.952Z,7.87
2019-04-30T09:01:19.481Z,6.95
2019-04-30T09:03:51.333Z,7.20
2019-04-30T09:06:26.771Z,6.67
2019-04-30T09:09:12.207Z,6.60
2019-04-30T09:11:51.629Z,7.55
2019-04-30T09:14:15.117Z,7.55
2019-04-30T09:16:45.113Z,7.50
2019-04-30T09:19:16.917Z,7.23
2019-04-30T09:21:48.763Z,6.80
2019-04-30T09:24:19.150Z,7.03
2019-04-30T09:26:49.426Z,5.78
2019-04-30T09:29:19.432Z,6.03
2019-04-30T09:31:49.451Z,5.63
2019-04-30T09:34:21.118Z,5.27
2019-04-30T09:36:51.144Z,5.40
2019-04-30T09:39:23.172Z,6.00
2019-04-30T09:41:52.769Z,5.20
2019-04-30T09:44:22.778Z,4.87
2019-04-30T09:46:53.823Z,5.47
2019-04-30T09:49:23.800Z,5.27
2019-04-30T09:51:53.773Z,5.77
2019-04-30T09:54:24.023Z,5.20
2019-04-30T09:56:54.318Z,5.67
2019-04-30T09:59:24.409Z,5.30
2019-04-30T10:01:54.378Z,4.27
2019-04-30T10:04:24.777Z,4.80
2019-04-30T10:06:55.124Z,4.47
2019-04-30T10:09:25.112Z,4.60
2019-04-30T10:12:09.728Z,4.60
2019-04-30T10:14:41.010Z,4.17
2019-04-30T10:17:27.057Z,4.33
2019-04-30T10:19:57.032Z,3.63
2019-04-30T10:22:26.994Z,3.23
2019-04-30T10:24:56.985Z,3.73
2019-04-30T10:27:29.199Z,3.77
2019-04-30T10:29:59.751Z,3.70
2019-04-30T10:32:30.114Z,3.60
2019-04-30T10:35:01.237Z,3.93
2019-04-30T10:37:31.192Z,3.20
2019-04-30T10:40:01.264Z,3.43
2019-04-30T10:42:34.676Z,3.10
2019-04-30T10:45:10.630Z,3.30
2019-04-30T10:47:40.597Z,3.27
2019-04-30T10:50:10.591Z,3.30
2019-04-30T10:52:40.549Z,3.20
2019-04-30T10:55:11.196Z,3.37
2019-04-30T10:57:41.238Z,3.63
2019-04-30T11:00:14.649Z,4.13
2019-04-30T11:02:44.617Z,3.30
2019-04-30T11:05:14.598Z,3.60
2019-04-30T11:07:44.553Z,3.67
2019-04-30T11:10:14.641Z,4.00
2019-04-30T11:12:44.669Z,4.10
2019-04-30T11:15:14.707Z,3.77
2019-04-30T11:17:44.917Z,3.90
2019-04-30T11:20:15.270Z,3.83
2019-04-30T11:22:45.932Z,3.70
2019-04-30T11:25:16.025Z,3.20
2019-04-30T11:27:46.573Z,3.90
2019-04-30T11:30:21.278Z,3.67
2019-04-30T11:32:48.879Z,3.17
2019-04-30T11:35:20.727Z,3.70
2019-04-30T11:37:51.041Z,3.53
2019-04-30T11:40:34.301Z,3.13
2019-04-30T11:42:59.282Z,2.80
2019-04-30T11:46:06.004Z,3.17
2019-04-30T11:48:35.970Z,2.30
2019-04-30T11:51:06.137Z,2.90
2019-04-30T11:53:36.106Z,2.77
2019-04-30T11:56:06.171Z,3.30
2019-04-30T11:58:36.135Z,3.20
2019-04-30T12:01:08.985Z,3.17
2019-04-30T12:03:39.405Z,3.40
2019-04-30T12:06:09.557Z,3.33
2019-04-30T12:08:56.273Z,3.97
2019-04-30T12:11:31.601Z,3.37
2019-04-30T12:14:01.561Z,3.27
2019-04-30T12:16:33.690Z,2.93
2019-04-30T12:19:03.341Z,2.77
2019-04-30T12:21:34.439Z,3.00
2019-04-30T12:24:04.520Z,3.50
2019-04-30T12:26:34.508Z,3.50
2019-04-30T12:29:04.482Z,2.80
2019-04-30T12:31:34.481Z,3.00
2019-04-30T12:34:04.468Z,2.67
2019-04-30T12:36:34.469Z,3.00
2019-04-30T12:39:05.916Z,3.33
2019-04-30T12:41:38.985Z,3.23
2019-04-30T12:44:09.369Z,3.80
2019-04-30T12:46:39.425Z,3.40
2019-04-30T12:49:13.304Z,3.40
2019-04-30T12:52:08.766Z,3.60
2019-04-30T12:54:55.931Z,4.00
2019-04-30T12:57:30.765Z,4.40
2019-04-30T13:00:00.726Z,3.30
2019-04-30T13:02:30.718Z,3.90
2019-04-30T13:05:00.687Z,3.10
2019-04-30T13:07:31.442Z,2.77
2019-04-30T13:10:03.687Z,2.93
2019-04-30T13:12:34.750Z,2.90
2019-04-30T13:15:06.357Z,3.33
2019-04-30T13:17:36.365Z,3.03
2019-04-30T13:20:18.127Z,3.40
2019-04-30T13:22:38.917Z,2.67
2019-04-30T13:25:09.977Z,2.97
2019-04-30T13:27:44.349Z,2.77
2019-04-30T13:30:18.620Z,2.90
2019-04-30T13:32:55.222Z,2.90
2019-04-30T13:35:25.176Z,2.80
2019-04-30T13:38:00.318Z,3.10
2019-04-30T13:40:49.331Z,2.57
2019-04-30T13:43:20.998Z,2.33
2019-04-30T13:45:51.910Z,2.80
2019-04-30T13:48:22.028Z,2.80
2019-04-30T13:50:51.994Z,2.70
2019-04-30T13:53:22.086Z,2.50
2019-04-30T13:55:52.044Z,2.60
2019-04-30T13:58:22.032Z,2.77
2019-04-30T14:00:53.477Z,3.13
2019-04-30T14:03:41.713Z,2.90
2019-04-30T14:06:13.260Z,2.73
2019-04-30T14:08:48.840Z,2.90
2019-04-30T14:11:19.057Z,3.43
2019-04-30T14:13:49.320Z,2.83
2019-04-30T14:16:19.505Z,3.00
2019-04-30T14:18:49.496Z,3.67
2019-04-30T14:21:32.297Z,2.50
2019-04-30T14:23:51.168Z,3.63
2019-04-30T14:26:21.204Z,3.40
2019-04-30T14:28:51.301Z,3.33
2019-04-30T14:31:21.274Z,3.20
2019-04-30T14:33:51.262Z,3.17
2019-04-30T14:36:21.230Z,3.70
2019-04-30T14:38:51.289Z,3.40
2019-04-30T14:41:22.118Z,3.27
2019-04-30T14:43:58.077Z,3.20
2019-04-30T14:46:46.077Z,3.20
2019-04-30T14:49:34.130Z,3.30
2019-04-30T14:52:04.814Z,3.10
2019-04-30T14:54:42.769Z,3.70
2019-04-30T14:57:30.424Z,3.90
2019-04-30T15:00:15.362Z,3.50
2019-04-30T15:02:50.254Z,3.20
2019-04-30T15:05:20.553Z,3.43
2019-04-30T15:07:50.505Z,3.90
2019-04-30T15:10:20.489Z,3.93
2019-04-30T15:12:50.605Z,4.00
2019-04-30T15:15:20.624Z,3.80
2019-04-30T15:17:50.765Z,4.07
2019-04-30T15:20:20.754Z,4.10
2019-04-30T15:23:00.547Z,4.30
2019-04-30T15:25:34.138Z,5.13
2019-04-30T15:28:02.203Z,4.40
2019-04-30T15:30:32.449Z,4.87
2019-04-30T15:33:09.728Z,4.60
2019-04-30T15:35:39.713Z,5.10
2019-04-30T15:38:09.679Z,4.87
2019-04-30T15:40:39.769Z,5.23
2019-04-30T15:43:09.742Z,5.00
2019-04-30T15:45:39.728Z,5.17
2019-04-30T15:48:09.709Z,5.13
2019-04-30T15:50:39.699Z,5.17
2019-04-30T15:53:09.681Z,4.80
2019-04-30T15:55:39.668Z,5.50
2019-04-30T15:58:16.349Z,5.93
2019-04-30T16:00:46.333Z,6.00
2019-04-30T16:03:21.758Z,5.70
2019-04-30T16:05:53.050Z,6.10
2019-04-30T16:08:33.953Z,6.53
2019-04-30T16:11:21.763Z,5.50
2019-04-30T16:14:20.243Z,7.63
2019-04-30T16:17:04.144Z,7.27
2019-04-30T16:19:34.192Z,5.30
2019-04-30T16:22:04.484Z,6.53
2019-04-30T16:24:34.533Z,6.10
2019-04-30T16:27:09.146Z,5.53
2019-04-30T16:29:40.764Z,5.97
2019-04-30T16:32:10.847Z,5.10
2019-04-30T16:34:40.806Z,5.70
2019-04-30T16:37:12.380Z,5.53
2019-04-30T16:39:42.344Z,5.90
2019-04-30T16:42:12.344Z,6.13
2019-04-30T16:44:42.487Z,5.50
2019-04-30T16:47:14.444Z,6.13
2019-04-30T16:49:44.176Z,5.07
2019-04-30T16:52:14.209Z,6.37
2019-04-30T16:54:44.186Z,5.07
2019-04-30T16:57:14.163Z,5.30
2019-04-30T16:59:44.159Z,5.00
2019-04-30T17:02:14.538Z,5.53
2019-04-30T17:04:50.238Z,5.83
2019-04-30T17:07:28.929Z,5.53
2019-04-30T17:10:13.553Z,5.73
2019-04-30T17:12:59.310Z,5.27
2019-04-30T17:15:31.388Z,4.90
2019-04-30T17:18:01.401Z,5.13
2019-04-30T17:20:31.462Z,4.60
2019-04-30T17:23:01.482Z,5.50
2019-04-30T17:25:31.471Z,5.70
2019-04-30T17:28:01.690Z,5.17
2019-04-30T17:30:32.954Z,5.50
2019-04-30T17:33:02.998Z,5.17
2019-04-30T17:35:33.418Z,5.00
2019-04-30T17:38:03.456Z,5.37
2019-04-30T17:40:33.513Z,5.30
2019-04-30T17:43:03.481Z,5.87
2019-04-30T17:45:33.552Z,5.00
2019-04-30T17:48:03.624Z,5.47
2019-04-30T17:50:33.665Z,5.70
2019-04-30T17:53:03.712Z,5.13
2019-04-30T17:55:33.737Z,5.67
2019-04-30T17:58:03.842Z,5.10
2019-04-30T18:00:38.818Z,5.63
2019-04-30T18:03:10.959Z,5.37
2019-04-30T18:05:40.935Z,5.20
2019-04-30T18:08:11.085Z,5.17
2019-04-30T18:10:41.562Z,4.90
2019-04-30T18:13:11.525Z,5.30
2019-04-30T18:15:41.589Z,5.00
2019-04-30T18:18:29.211Z,4.73
2019-04-30T18:21:33.611Z,5.30
2019-04-30T18:24:29.459Z,5.47
2019-04-30T18:27:16.827Z,5.30
2019-04-30T18:29:46.797Z,5.30
2019-04-30T18:32:16.791Z,5.73
2019-04-30T18:34:46.758Z,5.43
2019-04-30T18:37:18.820Z,5.30
2019-04-30T18:39:48.569Z,4.90
2019-04-30T18:42:19.338Z,5.50
2019-04-30T18:44:49.553Z,5.63
2019-04-30T18:47:19.649Z,6.07
2019-04-30T18:49:49.683Z,7.20
2019-04-30T18:52:19.731Z,7.43
2019-04-30T18:54:49.791Z,7.57
2019-04-30T18:57:20.225Z,7.47
2019-04-30T18:59:51.422Z,7.50
2019-04-30T19:02:21.502Z,6.93
2019-04-30T19:04:51.482Z,7.90
2019-04-30T19:07:29.846Z,6.73
2019-04-30T19:10:13.676Z,7.43
2019-04-30T19:13:05.845Z,7.20
2019-04-30T19:16:18.519Z,7.87
2019-04-30T19:18:39.865Z,6.63
2019-04-30T19:21:10.017Z,8.10
2019-04-30T19:23:40.470Z,8.47
2019-04-30T19:26:10.439Z,8.70
2019-04-30T19:28:45.712Z,7.57
2019-04-30T19:31:15.729Z,9.30
2019-04-30T19:33:45.764Z,7.93
2019-04-30T19:36:18.479Z,6.83
2019-04-30T19:38:48.498Z,7.23
2019-04-30T19:41:19.175Z,6.60
2019-04-30T19:43:50.094Z,6.77
2019-04-30T19:46:20.417Z,6.93
2019-04-30T19:48:50.691Z,7.77
2019-04-30T19:51:20.858Z,6.93
2019-04-30T19:53:52.356Z,9.47
2019-04-30T19:56:22.481Z,7.60
2019-04-30T19:59:02.110Z,8.40
2019-04-30T20:01:24.236Z,8.37
2019-04-30T20:03:54.209Z,7.17
2019-04-30T20:06:24.745Z,8.20
2019-04-30T20:08:55.431Z,7.53
2019-04-30T20:11:26.028Z,7.60
2019-04-30T20:13:56.329Z,7.47
2019-04-30T20:16:26.764Z,7.13
2019-04-30T20:18:59.098Z,7.43
2019-04-30T20:21:45.332Z,7.90
2019-04-30T20:24:00.680Z,8.70
2019-04-30T20:26:30.645Z,8.10
2019-04-30T20:29:00.921Z,10.20
2019-04-30T20:31:30.920Z,9.07
2019-04-30T20:34:01.519Z,7.73
2019-04-30T20:36:32.263Z,7.70
2019-04-30T20:39:19.785Z,7.33
2019-04-30T20:41:53.214Z,7.47
2019-04-30T20:44:24.308Z,8.27
2019-04-30T20:46:54.389Z,7.63
2019-04-30T20:49:24.716Z,8.00
2019-04-30T20:51:56.130Z,7.83
2019-04-30T20:54:29.058Z,7.93
2019-04-30T20:56:59.472Z,8.27
2019-04-30T20:59:29.513Z,8.73
2019-04-30T21:01:59.779Z,7.83
2019-04-30T21:04:30.523Z,7.50
2019-04-30T21:07:00.894Z,9.20
2019-04-30T21:09:31.129Z,9.40
2019-04-30T21:12:01.812Z,10.07
2019-04-30T21:14:32.256Z,9.17
2019-04-30T21:17:02.951Z,8.40
2019-04-30T21:19:34.089Z,8.23
2019-04-30T21:22:04.636Z,8.40
2019-04-30T21:24:35.927Z,8.33
2019-04-30T21:27:06.496Z,8.27
2019-04-30T21:29:36.666Z,7.67
2019-04-30T21:32:19.045Z,9.70
2019-04-30T21:35:14.663Z,8.37
2019-04-30T21:37:44.949Z,7.97
2019-04-30T21:40:15.497Z,8.17
2019-04-30T21:42:45.557Z,8.13
2019-04-30T21:45:15.565Z,7.20
2019-04-30T21:47:55.823Z,7.87
2019-04-30T21:50:19.544Z,7.73
2019-04-30T21:52:49.603Z,8.17
2019-04-30T21:55:20.122Z,8.47
2019-04-30T21:57:50.125Z,8.93
2019-04-30T22:00:35.378Z,8.33
2019-04-30T22:03:09.731Z,8.20
2019-04-30T22:05:39.657Z,8.03
2019-04-30T22:08:09.752Z,7.67
2019-04-30T22:10:39.984Z,8.80
2019-04-30T22:13:10.065Z,10.17
2019-04-30T22:15:40.029Z,9.40
2019-04-30T22:18:10.189Z,8.93
2019-04-30T22:20:40.393Z,9.03
2019-04-30T22:23:10.445Z,9.70
2019-04-30T22:25:40.585Z,8.50
2019-04-30T22:28:10.650Z,9.20
2019-04-30T22:30:40.629Z,10.27
2019-04-30T22:33:10.893Z,9.87
2019-04-30T22:35:47.586Z,9.03
2019-04-30T22:38:21.000Z,9.63
2019-04-30T22:40:50.961Z,9.43
2019-04-30T22:43:20.985Z,10.73
2019-04-30T22:45:59.582Z,11.03
2019-04-30T22:48:29.797Z,10.43
2019-04-30T22:50:59.801Z,10.23
2019-04-30T22:53:29.861Z,9.60
2019-04-30T22:55:59.849Z,10.88
2019-04-30T22:58:30.062Z,11.22
2019-04-30T23:01:14.425Z,10.58
2019-04-30T23:03:44.833Z,10.13
2019-04-30T23:06:15.744Z,11.12
2019-04-30T23:08:45.907Z,10.95
2019-04-30T23:11:16.037Z,10.73
2019-04-30T23:13:46.160Z,10.13
2019-04-30T23:16:16.402Z,10.17
2019-04-30T23:18:46.425Z,9.90
2019-04-30T23:21:16.514Z,10.80
2019-04-30T23:23:46.765Z,10.27
2019-04-30T23:26:18.171Z,10.30
2019-04-30T23:28:48.350Z,9.80
2019-04-30T23:31:18.426Z,10.87
2019-04-30T23:33:48.445Z,10.47
2019-04-30T23:36:18.444Z,12.47
2019-04-30T23:38:48.561Z,12.90
2019-04-30T23:41:19.729Z,12.43
2019-04-30T23:43:49.841Z,12.40
2019-04-30T23:46:19.939Z,13.00
2019-04-30T23:48:50.002Z,12.95
2019-04-30T23:51:20.075Z,13.13
2019-04-30T23:53:50.138Z,13.78
2019-04-30T23:56:20.178Z,12.43
2019-04-30T23:58:50.246Z,12.47
